createdAt,value
2022-12-04T00:00:51.370Z,100066.47
2022-12-04T00:01:53.023Z,100057.03
2022-12-04T00:02:54.817Z,100067.72
2022-12-04T00:03:59.326Z,100066.22
2022-12-04T00:05:01.388Z,100053.72
2022-12-04T00:06:09.438Z,100064.28
2022-12-04T00:07:11.176Z,100058.44
2022-12-04T00:08:12.871Z,100042.25
2022-12-04T00:09:14.645Z,100066.97
2022-12-04T00:10:16.323Z,100057.09
2022-12-04T00:11:20.656Z,100059.50
2022-12-04T00:12:22.416Z,100060.34
2022-12-04T00:13:24.077Z,100064.28
2022-12-04T00:14:26.056Z,100061.81
2022-12-04T00:15:27.732Z,100063.78
2022-12-04T00:16:30.919Z,100064.91
2022-12-04T00:17:32.663Z,100065.00
2022-12-04T00:18:35.340Z,100074.81
2022-12-04T00:19:37.001Z,100055.94
2022-12-04T00:20:41.533Z,100061.84
2022-12-04T00:21:43.219Z,100058.59
2022-12-04T00:22:44.887Z,100068.94
2022-12-04T00:23:47.685Z,100060.94
2022-12-04T00:24:49.330Z,100071.28
2022-12-04T00:25:53.413Z,100070.75
2022-12-04T00:26:55.113Z,100066.81
2022-12-04T00:27:56.789Z,100073.66
2022-12-04T00:28:58.444Z,100068.75
2022-12-04T00:30:00.146Z,100068.06
2022-12-04T00:31:06.297Z,100065.50
2022-12-04T00:32:08.109Z,100063.03
2022-12-04T00:33:10.050Z,100065.78
2022-12-04T00:34:12.003Z,100060.25
2022-12-04T00:35:13.659Z,100069.63
2022-12-04T00:36:18.032Z,100067.28
2022-12-04T00:37:19.718Z,100059.91
2022-12-04T00:38:21.496Z,100064.81
2022-12-04T00:39:23.217Z,100054.72
2022-12-04T00:40:24.875Z,100068.50
2022-12-04T00:41:29.239Z,100065.34
2022-12-04T00:42:30.897Z,100055.31
2022-12-04T00:43:33.535Z,100061.38
2022-12-04T00:44:35.171Z,100062.53
2022-12-04T00:45:36.847Z,100062.53
2022-12-04T00:46:38.534Z,100057.88
2022-12-04T00:47:40.190Z,100063.41
2022-12-04T00:48:42.039Z,100058.78
2022-12-04T00:49:43.736Z,100044.69
2022-12-04T00:50:45.529Z,100060.13
2022-12-04T00:51:47.186Z,100063.88
2022-12-04T00:52:48.845Z,100060.72
2022-12-04T00:53:52.769Z,100055.78
2022-12-04T00:54:54.977Z,100061.56
2022-12-04T00:55:56.660Z,100053.16
2022-12-04T00:56:58.297Z,100050.19
2022-12-04T00:58:00.311Z,100037.34
2022-12-04T00:59:02.253Z,100050.19
2022-12-04T01:00:05.457Z,100054.94
2022-12-04T01:01:10.461Z,100063.22
2022-12-04T01:02:12.257Z,100059.59
2022-12-04T01:03:14.066Z,100046.13
2022-12-04T01:04:15.814Z,100060.44
2022-12-04T01:05:17.566Z,100056.47
2022-12-04T01:06:19.487Z,100055.88
2022-12-04T01:07:21.160Z,100051.59
2022-12-04T01:08:22.877Z,100046.94
2022-12-04T01:09:24.544Z,100054.06
2022-12-04T01:10:26.199Z,100047.03
2022-12-04T01:11:30.375Z,100050.16
2022-12-04T01:12:32.425Z,100051.81
2022-12-04T01:13:34.345Z,100037.19
2022-12-04T01:14:36.053Z,100048.06
2022-12-04T01:15:43.766Z,100045.97
2022-12-04T01:16:46.805Z,100056.13
2022-12-04T01:17:48.512Z,100048.34
2022-12-04T01:18:50.802Z,100053.31
2022-12-04T01:19:52.661Z,100050.69
2022-12-04T01:20:54.589Z,100051.94
2022-12-04T01:21:56.221Z,100058.16
2022-12-04T01:22:57.893Z,100062.28
2022-12-04T01:24:00.035Z,100062.00
2022-12-04T01:25:01.812Z,100055.25
2022-12-04T01:26:03.586Z,100055.41
2022-12-04T01:27:05.358Z,100055.09
2022-12-04T01:28:07.003Z,100060.88
2022-12-04T01:29:08.763Z,100056.75
2022-12-04T01:30:10.851Z,100058.94
2022-12-04T01:31:15.232Z,100056.88
2022-12-04T01:32:17.103Z,100068.41
2022-12-04T01:33:18.817Z,100060.69
2022-12-04T01:34:20.507Z,100064.81
2022-12-04T01:35:22.216Z,100067.28
2022-12-04T01:36:27.337Z,100073.69
2022-12-04T01:37:32.041Z,100068.41
2022-12-04T01:38:35.207Z,100075.16
2022-12-04T01:39:37.458Z,100068.09
2022-12-04T01:40:44.653Z,100068.63
2022-12-04T01:41:46.745Z,100067.97
2022-12-04T01:42:48.402Z,100060.69
2022-12-04T01:44:08.647Z,100067.88
2022-12-04T01:45:38.891Z,100053.34
2022-12-04T01:46:42.080Z,100062.59
2022-12-04T01:47:43.833Z,100063.56
2022-12-04T01:48:54.354Z,100064.91
2022-12-04T01:49:57.133Z,100064.59
2022-12-04T01:51:25.655Z,100065.88
2022-12-04T01:52:27.401Z,100060.09
2022-12-04T01:53:30.336Z,100068.81
2022-12-04T01:54:37.552Z,100064.53
2022-12-04T01:55:39.933Z,100065.34
2022-12-04T01:56:50.724Z,100059.56
2022-12-04T01:57:52.440Z,100062.88
2022-12-04T01:58:57.733Z,100062.28
2022-12-04T02:00:09.235Z,100061.59
2022-12-04T02:01:11.166Z,100059.81
2022-12-04T02:02:16.150Z,100059.34
2022-12-04T02:03:18.247Z,100050.34
2022-12-04T02:04:20.357Z,100049.59
2022-12-04T02:05:23.153Z,100049.44
2022-12-04T02:06:24.834Z,100037.69
2022-12-04T02:07:27.194Z,100050.25
2022-12-04T02:08:29.511Z,100048.63
2022-12-04T02:09:32.935Z,100049.88
2022-12-04T02:10:59.156Z,100049.34
2022-12-04T02:12:08.977Z,100047.31
2022-12-04T02:13:22.038Z,100048.47
2022-12-04T02:14:33.334Z,100050.56
2022-12-04T02:15:53.519Z,100046.63
2022-12-04T02:17:13.277Z,100051.09
2022-12-04T02:18:46.830Z,100054.69
2022-12-04T02:20:09.835Z,100048.75
2022-12-04T02:21:19.790Z,100056.81
2022-12-04T02:22:31.055Z,100055.69
2022-12-04T02:23:55.916Z,100051.38
2022-12-04T02:25:45.419Z,100053.47
2022-12-04T02:27:10.372Z,100050.47
2022-12-04T02:28:39.681Z,100052.47
2022-12-04T02:29:52.384Z,100038.44
2022-12-04T02:30:58.917Z,100053.28
2022-12-04T02:32:13.520Z,100053.06
2022-12-04T02:33:26.269Z,100047.75
2022-12-04T02:34:35.235Z,100051.66
2022-12-04T02:35:44.629Z,100056.13
2022-12-04T02:37:19.840Z,100061.59
2022-12-04T02:38:32.247Z,100047.63
2022-12-04T02:39:41.514Z,100051.69
2022-12-04T02:40:58.913Z,100044.31
2022-12-04T02:42:18.626Z,100044.59
2022-12-04T02:43:32.708Z,100049.59
2022-12-04T02:44:57.769Z,100060.34
2022-12-04T02:46:03.645Z,100055.72
2022-12-04T02:47:12.343Z,100050.44
2022-12-04T02:48:18.602Z,100046.53
2022-12-04T02:49:27.329Z,100060.97
2022-12-04T02:50:31.776Z,100054.72
2022-12-04T02:51:37.684Z,100045.28
2022-12-04T02:52:44.816Z,100046.84
2022-12-04T02:53:54.302Z,100048.34
2022-12-04T02:55:07.989Z,100041.59
2022-12-04T02:56:14.894Z,100057.53
2022-12-04T02:57:22.180Z,100059.66
2022-12-04T02:58:34.095Z,100058.88
2022-12-04T02:59:42.653Z,100051.84
2022-12-04T03:00:47.212Z,100060.84
2022-12-04T03:01:53.815Z,100062.63
2022-12-04T03:03:20.574Z,100049.16
2022-12-04T03:04:30.750Z,100050.81
2022-12-04T03:05:43.426Z,100051.94
2022-12-04T03:06:49.654Z,100043.09
2022-12-04T03:08:01.185Z,100051.50
2022-12-04T03:09:09.711Z,100054.59
2022-12-04T03:10:17.004Z,100051.31
2022-12-04T03:11:18.958Z,100052.28
2022-12-04T03:12:28.284Z,100045.09
2022-12-04T03:13:41.630Z,100047.84
2022-12-04T03:14:51.346Z,100038.38
2022-12-04T03:16:19.669Z,100030.00
2022-12-04T03:17:29.716Z,100042.16
2022-12-04T03:18:38.484Z,100039.97
2022-12-04T03:19:47.279Z,100034.13
2022-12-04T03:20:53.003Z,100039.38
2022-12-04T03:22:00.078Z,100049.22
2022-12-04T03:23:30.692Z,100049.66
2022-12-04T03:24:48.221Z,100044.25
2022-12-04T03:26:03.104Z,100053.44
2022-12-04T03:27:32.646Z,100049.47
2022-12-04T03:28:38.391Z,100047.50
2022-12-04T03:29:46.346Z,100047.44
2022-12-04T03:30:54.310Z,100051.06
2022-12-04T03:31:55.932Z,100052.69
2022-12-04T03:33:13.130Z,100063.34
2022-12-04T03:34:24.200Z,100045.06
2022-12-04T03:35:44.076Z,100057.56
2022-12-04T03:37:13.839Z,100060.94
2022-12-04T03:38:41.783Z,100049.66
2022-12-04T03:40:00.748Z,100046.59
2022-12-04T03:41:06.344Z,100053.44
2022-12-04T03:42:20.932Z,100044.59
2022-12-04T03:43:34.829Z,100052.31
2022-12-04T03:44:43.374Z,100046.59
2022-12-04T03:45:48.754Z,100051.34
2022-12-04T03:47:06.331Z,100048.59
2022-12-04T03:48:22.469Z,100046.66
2022-12-04T03:49:46.691Z,100054.06
2022-12-04T03:51:07.104Z,100050.91
2022-12-04T03:52:27.816Z,100054.50
2022-12-04T03:53:43.729Z,100050.78
2022-12-04T03:54:57.756Z,100049.56
2022-12-04T03:56:17.512Z,100045.28
2022-12-04T03:57:24.723Z,100050.25
2022-12-04T03:58:31.643Z,100049.41
2022-12-04T04:00:07.715Z,100054.13
2022-12-04T04:01:11.811Z,100044.47
2022-12-04T04:02:18.011Z,100049.56
2022-12-04T04:03:25.052Z,100050.81
2022-12-04T04:04:32.507Z,100048.88
2022-12-04T04:05:37.037Z,100049.22
2022-12-04T04:06:44.728Z,100049.84
2022-12-04T04:07:51.260Z,100053.31
2022-12-04T04:08:56.995Z,100052.84
2022-12-04T04:10:02.446Z,100053.00
2022-12-04T04:11:19.954Z,100048.59
2022-12-04T04:12:26.069Z,100036.00
2022-12-04T04:13:55.858Z,100047.47
2022-12-04T04:15:22.365Z,100044.59
2022-12-04T04:16:47.624Z,100051.44
2022-12-04T04:18:10.257Z,100044.84
2022-12-04T04:19:34.397Z,100053.38
2022-12-04T04:21:02.979Z,100056.84
2022-12-04T04:22:26.688Z,100058.34
2022-12-04T04:23:54.732Z,100055.03
2022-12-04T04:25:04.458Z,100051.19
2022-12-04T04:26:08.411Z,100050.41
2022-12-04T04:27:10.345Z,100060.97
2022-12-04T04:28:32.265Z,100060.28
2022-12-04T04:29:34.329Z,100059.31
2022-12-04T04:30:36.282Z,100060.97
2022-12-04T04:31:53.176Z,100061.09
2022-12-04T04:32:55.591Z,100069.25
2022-12-04T04:33:57.200Z,100072.84
2022-12-04T04:35:21.652Z,100069.41
2022-12-04T04:36:48.923Z,100062.97
2022-12-04T04:38:13.039Z,100066.44
2022-12-04T04:39:29.661Z,100064.94
2022-12-04T04:40:45.832Z,100033.13
2022-12-04T04:41:54.847Z,100057.13
2022-12-04T04:43:11.391Z,100062.50
2022-12-04T04:44:28.238Z,100061.53
2022-12-04T04:45:41.277Z,100064.16
2022-12-04T04:46:51.026Z,100066.78
2022-12-04T04:48:08.288Z,100060.38
2022-12-04T04:49:13.150Z,100066.78
2022-12-04T04:50:17.246Z,100067.63
2022-12-04T04:51:20.127Z,100070.38
2022-12-04T04:52:23.772Z,100061.69
2022-12-04T04:53:43.643Z,100072.03
2022-12-04T04:54:47.414Z,100065.81
2022-12-04T04:55:49.925Z,100067.47
2022-12-04T04:56:51.575Z,100074.38
2022-12-04T04:57:53.206Z,100083.50
2022-12-04T04:58:54.889Z,100074.50
2022-12-04T04:59:57.021Z,100076.00
2022-12-04T05:01:09.102Z,100079.03
2022-12-04T05:02:10.961Z,100084.34
2022-12-04T05:03:12.711Z,100087.63
2022-12-04T05:04:14.787Z,100080.88
2022-12-04T05:05:17.523Z,100084.47
2022-12-04T05:06:19.327Z,100082.69
2022-12-04T05:07:21.038Z,100076.09
2022-12-04T05:08:23.165Z,100082.75
2022-12-04T05:09:26.430Z,100089.44
2022-12-04T05:10:28.102Z,100057.28
2022-12-04T05:11:30.006Z,100081.19
2022-12-04T05:12:31.859Z,100082.00
2022-12-04T05:13:33.907Z,100085.00
2022-12-04T05:14:35.626Z,100086.00
2022-12-04T05:15:37.306Z,100082.00
2022-12-04T05:16:40.511Z,100081.03
2022-12-04T05:17:42.201Z,100083.38
2022-12-04T05:19:03.251Z,100092.22
2022-12-04T05:20:06.533Z,100088.81
2022-12-04T05:21:16.098Z,100094.88
2022-12-04T05:22:18.760Z,100089.34
2022-12-04T05:23:20.579Z,100093.47
2022-12-04T05:24:22.249Z,100094.88
2022-12-04T05:25:24.114Z,100092.13
2022-12-04T05:26:25.858Z,100096.25
2022-12-04T05:27:29.159Z,100096.94
2022-12-04T05:28:31.029Z,100091.69
2022-12-04T05:29:35.830Z,100094.31
2022-12-04T05:30:37.826Z,100096.03
2022-12-04T05:31:39.565Z,100097.16
2022-12-04T05:32:41.294Z,100105.03
2022-12-04T05:33:43.010Z,100106.81
2022-12-04T05:34:48.271Z,100095.38
2022-12-04T05:36:00.941Z,100107.72
2022-12-04T05:37:02.601Z,100100.47
2022-12-04T05:38:04.316Z,100104.06
2022-12-04T05:39:05.963Z,100109.19
2022-12-04T05:40:08.712Z,100099.69
2022-12-04T05:41:10.718Z,100102.00
2022-12-04T05:42:13.160Z,100111.69
2022-12-04T05:43:14.803Z,100114.00
2022-12-04T05:44:16.459Z,100102.16
2022-12-04T05:45:18.195Z,100107.72
2022-12-04T05:46:19.913Z,100105.75
2022-12-04T05:47:21.578Z,100107.94
2022-12-04T05:48:23.227Z,100108.34
2022-12-04T05:49:25.023Z,100103.09
2022-12-04T05:50:26.695Z,100112.75
2022-12-04T05:51:28.383Z,100110.63
2022-12-04T05:52:30.003Z,100108.34
2022-12-04T05:53:31.631Z,100096.41
2022-12-04T05:54:33.407Z,100100.22
2022-12-04T05:55:35.128Z,100101.28
2022-12-04T05:56:36.853Z,100108.00
2022-12-04T05:57:38.543Z,100104.41
2022-12-04T05:58:40.222Z,100108.53
2022-12-04T05:59:41.892Z,100105.38
2022-12-04T06:00:43.536Z,100108.69
2022-12-04T06:01:45.500Z,100117.78
2022-12-04T06:02:47.212Z,100119.09
2022-12-04T06:03:49.558Z,100119.78
2022-12-04T06:04:51.219Z,100116.41
2022-12-04T06:05:52.837Z,100113.63
2022-12-04T06:06:54.930Z,100114.75
2022-12-04T06:07:56.665Z,100120.00
2022-12-04T06:08:59.852Z,100121.50
2022-12-04T06:10:01.593Z,100111.31
2022-12-04T06:11:10.439Z,100119.72
2022-12-04T06:12:12.115Z,100125.50
2022-12-04T06:13:13.757Z,100118.44
2022-12-04T06:14:16.375Z,100112.81
2022-12-04T06:15:18.117Z,100117.78
2022-12-04T06:16:25.559Z,100116.69
2022-12-04T06:17:27.279Z,100118.66
2022-12-04T06:18:28.924Z,100123.38
2022-12-04T06:19:30.557Z,100109.44
2022-12-04T06:20:33.278Z,100118.66
2022-12-04T06:21:37.833Z,100116.19
2022-12-04T06:22:39.551Z,100120.28
2022-12-04T06:23:41.248Z,100130.28
2022-12-04T06:24:42.926Z,100123.97
2022-12-04T06:25:45.581Z,100131.41
2022-12-04T06:27:18.847Z,100139.69
2022-12-04T06:28:09.265Z,100133.88
2022-12-04T06:29:12.602Z,100128.63
2022-12-04T06:30:14.481Z,100133.06
2022-12-04T06:31:19.118Z,100134.84
2022-12-04T06:32:21.973Z,100130.56
2022-12-04T06:33:23.892Z,100135.13
2022-12-04T06:34:25.735Z,100131.69
2022-12-04T06:35:27.410Z,100136.50
2022-12-04T06:36:29.118Z,100135.38
2022-12-04T06:37:30.942Z,100135.53
2022-12-04T06:38:33.337Z,100145.41
2022-12-04T06:39:35.009Z,100134.91
2022-12-04T06:40:40.474Z,100134.63
2022-12-04T06:41:43.458Z,100133.94
2022-12-04T06:42:45.362Z,100138.84
2022-12-04T06:43:48.652Z,100142.44
2022-12-04T06:44:50.312Z,100138.31
2022-12-04T06:46:02.548Z,100138.31
2022-12-04T06:47:05.345Z,100127.28
2022-12-04T06:48:07.138Z,100138.50
2022-12-04T06:49:10.161Z,100129.59
2022-12-04T06:50:11.813Z,100131.69
2022-12-04T06:51:16.791Z,100132.09
2022-12-04T06:52:18.611Z,100136.88
2022-12-04T06:53:20.232Z,100134.38
2022-12-04T06:54:21.910Z,100137.53
2022-12-04T06:55:23.574Z,100128.34
2022-12-04T06:56:28.231Z,100116.25
2022-12-04T06:57:29.901Z,100133.88
2022-12-04T06:58:32.202Z,100128.53
2022-12-04T06:59:34.066Z,100124.94
2022-12-04T07:00:36.174Z,100141.00
2022-12-04T07:01:38.019Z,100120.38
2022-12-04T07:02:39.762Z,100143.69
2022-12-04T07:03:46.320Z,100133.88
2022-12-04T07:04:56.330Z,100139.56
2022-12-04T07:05:57.975Z,100137.09
2022-12-04T07:06:59.654Z,100133.34
2022-12-04T07:08:01.319Z,100150.31
2022-12-04T07:09:15.790Z,100149.63
2022-12-04T07:10:17.539Z,100145.34
2022-12-04T07:11:20.232Z,100143.25
2022-12-04T07:12:21.937Z,100143.47
2022-12-04T07:13:23.599Z,100148.72
2022-12-04T07:14:25.242Z,100132.59
2022-12-04T07:15:27.030Z,100140.44
2022-12-04T07:16:32.742Z,100150.31
2022-12-04T07:17:37.090Z,100150.88
2022-12-04T07:18:38.793Z,100142.47
2022-12-04T07:19:40.501Z,100142.94
2022-12-04T07:20:42.189Z,100148.53
2022-12-04T07:21:44.164Z,100150.47
2022-12-04T07:22:45.813Z,100153.09
2022-12-04T07:23:56.580Z,100150.47
2022-12-04T07:24:58.315Z,100152.31
2022-12-04T07:26:05.150Z,100160.41
2022-12-04T07:27:06.878Z,100161.50
2022-12-04T07:28:08.525Z,100156.41
2022-12-04T07:29:10.885Z,100162.13
2022-12-04T07:30:15.875Z,100155.44
2022-12-04T07:31:21.884Z,100151.03
2022-12-04T07:32:23.854Z,100158.31
2022-12-04T07:33:25.508Z,100147.13
2022-12-04T07:34:27.370Z,100150.88
2022-12-04T07:35:29.050Z,100154.72
2022-12-04T07:36:30.700Z,100151.84
2022-12-04T07:37:36.020Z,100157.69
2022-12-04T07:38:37.698Z,100149.50
2022-12-04T07:39:39.378Z,100142.78
2022-12-04T07:40:41.190Z,100154.75
2022-12-04T07:41:42.844Z,100153.78
2022-12-04T07:42:44.492Z,100158.75
2022-12-04T07:43:46.503Z,100160.41
2022-12-04T07:44:48.206Z,100158.75
2022-12-04T07:45:49.910Z,100156.13
2022-12-04T07:46:51.643Z,100158.47
2022-12-04T07:47:53.348Z,100155.53
2022-12-04T07:48:56.798Z,100149.91
2022-12-04T07:49:58.620Z,100150.44
2022-12-04T07:51:04.429Z,100149.97
2022-12-04T07:52:06.524Z,100149.16
2022-12-04T07:53:08.180Z,100148.94
2022-12-04T07:54:09.919Z,100149.09
2022-12-04T07:55:11.616Z,100148.94
2022-12-04T07:56:14.357Z,100151.84
2022-12-04T07:57:16.047Z,100156.41
2022-12-04T07:58:17.704Z,100152.75
2022-12-04T07:59:19.355Z,100160.31
2022-12-04T08:00:21.026Z,100154.94
2022-12-04T08:01:24.098Z,100159.19
2022-12-04T08:02:26.595Z,100160.69
2022-12-04T08:03:28.284Z,100154.09
2022-12-04T08:04:29.981Z,100148.41
2022-12-04T08:05:32.017Z,100150.19
2022-12-04T08:06:35.277Z,100157.91
2022-12-04T08:07:37.005Z,100142.47
2022-12-04T08:08:38.965Z,100167.00
2022-12-04T08:09:40.695Z,100146.69
2022-12-04T08:10:42.346Z,100148.72
2022-12-04T08:11:43.976Z,100148.13
2022-12-04T08:12:45.629Z,100156.00
2022-12-04T08:13:47.340Z,100150.91
2022-12-04T08:14:49.880Z,100153.38
2022-12-04T08:15:52.102Z,100146.38
2022-12-04T08:16:53.806Z,100159.00
2022-12-04T08:17:55.483Z,100154.41
2022-12-04T08:18:58.312Z,100154.56
2022-12-04T08:20:00.023Z,100161.97
2022-12-04T08:21:10.735Z,100156.03
2022-12-04T08:22:12.804Z,100148.78
2022-12-04T08:23:14.462Z,100164.38
2022-12-04T08:24:16.249Z,100152.69
2022-12-04T08:25:18.358Z,100159.03
2022-12-04T08:26:21.854Z,100165.94
2022-12-04T08:27:23.514Z,100153.78
2022-12-04T08:28:25.188Z,100165.50
2022-12-04T08:29:26.914Z,100158.06
2022-12-04T08:30:28.606Z,100159.03
2022-12-04T08:31:33.135Z,100152.81
2022-12-04T08:32:34.958Z,100158.75
2022-12-04T08:33:36.772Z,100153.50
2022-12-04T08:34:38.473Z,100158.75
2022-12-04T08:35:40.118Z,100152.31
2022-12-04T08:36:41.774Z,100153.66
2022-12-04T08:37:43.438Z,100161.66
2022-12-04T08:38:45.984Z,100154.09
2022-12-04T08:39:47.636Z,100160.41
2022-12-04T08:40:49.366Z,100161.75
2022-12-04T08:41:55.401Z,100162.06
2022-12-04T08:42:58.701Z,100160.25
2022-12-04T08:44:01.124Z,100156.81
2022-12-04T08:45:02.855Z,100160.69
2022-12-04T08:46:08.096Z,100159.88
2022-12-04T08:47:09.855Z,100153.78
2022-12-04T08:48:11.505Z,100163.16
2022-12-04T08:49:13.154Z,100159.63
2022-12-04T08:50:15.100Z,100146.97
2022-12-04T08:51:19.652Z,100160.84
2022-12-04T08:52:21.327Z,100154.09
2022-12-04T08:53:23.488Z,100157.50
2022-12-04T08:54:25.242Z,100156.81
2022-12-04T08:55:26.919Z,100145.25
2022-12-04T08:56:30.440Z,100153.22
2022-12-04T08:57:32.078Z,100157.38
2022-12-04T08:58:34.212Z,100150.44
2022-12-04T08:59:35.944Z,100156.19
2022-12-04T09:00:37.607Z,100155.53
2022-12-04T09:01:39.430Z,100153.34
2022-12-04T09:02:41.182Z,100154.56
2022-12-04T09:03:43.319Z,100151.56
2022-12-04T09:04:45.041Z,100153.22
2022-12-04T09:05:47.500Z,100149.69
2022-12-04T09:06:49.140Z,100152.91
2022-12-04T09:07:50.848Z,100149.47
2022-12-04T09:08:55.052Z,100144.50
2022-12-04T09:09:57.107Z,100147.53
2022-12-04T09:11:14.684Z,100141.59
2022-12-04T09:12:16.406Z,100140.41
2022-12-04T09:13:18.124Z,100140.63
2022-12-04T09:14:25.771Z,100139.50
2022-12-04T09:15:27.566Z,100137.31
2022-12-04T09:16:29.366Z,100141.53
2022-12-04T09:17:31.093Z,100139.59
2022-12-04T09:18:33.117Z,100135.66
2022-12-04T09:19:36.041Z,100137.03
2022-12-04T09:20:39.337Z,100132.06
2022-12-04T09:21:41.036Z,100135.66
2022-12-04T09:23:02.860Z,100129.09
2022-12-04T09:24:04.423Z,100120.53
2022-12-04T09:25:06.483Z,100123.44
2022-12-04T09:26:26.815Z,100124.28
2022-12-04T09:27:28.471Z,100122.47
2022-12-04T09:28:30.145Z,100116.03
2022-12-04T09:29:32.454Z,100120.97
2022-12-04T09:30:34.170Z,100116.19
2022-12-04T09:31:36.005Z,100117.03
2022-12-04T09:32:38.281Z,100113.56
2022-12-04T09:33:40.018Z,100118.34
2022-12-04T09:34:41.839Z,100112.44
2022-12-04T09:35:43.525Z,100116.41
2022-12-04T09:36:45.306Z,100106.53
2022-12-04T09:37:46.989Z,100112.13
2022-12-04T09:38:51.117Z,100101.44
2022-12-04T09:39:55.954Z,100112.81
2022-12-04T09:41:24.136Z,100109.91
2022-12-04T09:42:53.812Z,100104.72
2022-12-04T09:44:04.022Z,100110.88
2022-12-04T09:45:17.220Z,100114.53
2022-12-04T09:46:51.021Z,100113.72
2022-12-04T09:47:56.828Z,100106.34
2022-12-04T09:49:03.172Z,100115.22
2022-12-04T09:50:27.042Z,100107.13
2022-12-04T09:51:29.156Z,100107.13
2022-12-04T09:52:56.336Z,100107.66
2022-12-04T09:54:05.352Z,100099.09
2022-12-04T09:55:15.697Z,100106.28
2022-12-04T09:56:20.062Z,100111.81
2022-12-04T09:57:35.674Z,100110.16
2022-12-04T09:58:40.435Z,100109.59
2022-12-04T09:59:42.137Z,100108.75
2022-12-04T10:00:49.337Z,100108.63
2022-12-04T10:02:00.851Z,100105.19
2022-12-04T10:03:06.541Z,100089.94
2022-12-04T10:04:10.765Z,100094.44
2022-12-04T10:05:39.141Z,100097.97
2022-12-04T10:06:48.110Z,100093.91
2022-12-04T10:08:04.831Z,100100.59
2022-12-04T10:09:35.576Z,100091.28
2022-12-04T10:10:42.656Z,100104.25
2022-12-04T10:11:56.071Z,100102.41
2022-12-04T10:13:06.910Z,100097.44
2022-12-04T10:14:51.079Z,100098.28
2022-12-04T10:16:10.112Z,100083.66
2022-12-04T10:17:49.586Z,100093.47
2022-12-04T10:18:59.225Z,100089.94
2022-12-04T10:20:17.219Z,100087.88
2022-12-04T10:21:36.393Z,100090.34
2022-12-04T10:22:53.422Z,100090.63
2022-12-04T10:24:22.632Z,100090.63
2022-12-04T10:25:26.488Z,100085.81
2022-12-04T10:26:35.006Z,100081.88
2022-12-04T10:27:40.720Z,100090.38
2022-12-04T10:28:55.040Z,100075.19
2022-12-04T10:30:14.323Z,100091.00
2022-12-04T10:31:16.434Z,100078.19
2022-12-04T10:32:37.585Z,100076.41
2022-12-04T10:33:51.955Z,100079.59
2022-12-04T10:34:57.299Z,100073.53
2022-12-04T10:35:59.790Z,100076.00
2022-12-04T10:37:10.166Z,100079.16
2022-12-04T10:38:29.818Z,100079.31
2022-12-04T10:39:42.323Z,100074.91
2022-12-04T10:40:49.134Z,100076.69
2022-12-04T10:42:06.156Z,100078.50
2022-12-04T10:43:55.494Z,100064.03
2022-12-04T10:44:57.659Z,100073.00
2022-12-04T10:45:59.529Z,100054.81
2022-12-04T10:47:03.411Z,100062.09
2022-12-04T10:48:10.714Z,100053.38
2022-12-04T10:49:23.072Z,100060.28
2022-12-04T10:50:25.954Z,100050.41
2022-12-04T10:51:36.387Z,100062.50
2022-12-04T10:52:38.299Z,100054.81
2022-12-04T10:53:40.270Z,100059.47
2022-12-04T10:54:49.373Z,100060.00
2022-12-04T10:55:51.284Z,100054.75
2022-12-04T10:56:56.764Z,100045.91
2022-12-04T10:57:59.465Z,100048.38
2022-12-04T10:59:02.274Z,100051.66
2022-12-04T11:00:24.265Z,100047.91
2022-12-04T11:01:28.362Z,100045.59
2022-12-04T11:02:33.936Z,100040.97
2022-12-04T11:03:36.812Z,100036.81
2022-12-04T11:04:40.517Z,100034.34
2022-12-04T11:05:55.489Z,100042.16
2022-12-04T11:07:04.620Z,100046.25
2022-12-04T11:08:08.356Z,100038.47
2022-12-04T11:09:22.586Z,100049.50
2022-12-04T11:10:44.523Z,100034.88
2022-12-04T11:11:46.411Z,100037.06
2022-12-04T11:13:27.293Z,100034.75
2022-12-04T11:14:30.673Z,100025.75
2022-12-04T11:15:42.092Z,100026.50
2022-12-04T11:16:48.444Z,100029.25
2022-12-04T11:17:50.845Z,100030.59
2022-12-04T11:18:52.915Z,100028.97
2022-12-04T11:20:15.559Z,100028.00
2022-12-04T11:21:26.353Z,100024.22
2022-12-04T11:22:28.484Z,100013.91
2022-12-04T11:23:34.552Z,100013.94
2022-12-04T11:24:40.170Z,100020.16
2022-12-04T11:25:47.967Z,99996.44
2022-12-04T11:26:51.980Z,100016.19
2022-12-04T11:28:00.362Z,100024.44
2022-12-04T11:29:05.290Z,100013.22
2022-12-04T11:30:16.351Z,100024.06
2022-12-04T11:31:21.979Z,100020.94
2022-12-04T11:32:33.647Z,100024.00
2022-12-04T11:33:58.838Z,100019.28
2022-12-04T11:35:22.383Z,100026.69
2022-12-04T11:36:35.262Z,100022.88
2022-12-04T11:37:43.551Z,100016.53
2022-12-04T11:38:48.169Z,100009.09
2022-12-04T11:39:51.154Z,100013.53
2022-12-04T11:40:56.542Z,100019.44
2022-12-04T11:42:06.076Z,100009.63
2022-12-04T11:43:10.611Z,100014.88
2022-12-04T11:44:28.136Z,100019.16
2022-12-04T11:45:30.585Z,100022.41
2022-12-04T11:46:34.545Z,100019.59
2022-12-04T11:47:36.551Z,100018.75
2022-12-04T11:48:44.724Z,100022.38
2022-12-04T11:50:01.612Z,100014.19
2022-12-04T11:51:21.683Z,100024.22
2022-12-04T11:52:43.850Z,100011.91
2022-12-04T11:53:54.302Z,100014.88
2022-12-04T11:55:14.445Z,100015.84
2022-12-04T11:56:41.525Z,100020.72
2022-12-04T11:58:01.507Z,100016.13
2022-12-04T11:59:32.190Z,100028.97
2022-12-04T12:00:47.328Z,100019.59
2022-12-04T12:02:14.268Z,100013.97
2022-12-04T12:03:32.003Z,100013.00
2022-12-04T12:04:57.479Z,100018.75
2022-12-04T12:06:20.825Z,100018.09
2022-12-04T12:08:02.909Z,100019.34
2022-12-04T12:09:42.541Z,100012.16
2022-12-04T12:10:56.882Z,100011.97
2022-12-04T12:12:06.484Z,100011.50
2022-12-04T12:13:27.424Z,100010.53
2022-12-04T12:14:58.596Z,100006.56
2022-12-04T12:16:21.042Z,100002.16
2022-12-04T12:17:23.936Z,100003.94
2022-12-04T12:18:56.788Z,100000.66
2022-12-04T12:20:11.218Z,100003.22
2022-12-04T12:21:32.488Z,100003.41
2022-12-04T12:22:41.237Z,100002.75
2022-12-04T12:23:57.420Z,99995.69
2022-12-04T12:25:30.053Z,99997.50
2022-12-04T12:26:41.486Z,99991.91
2022-12-04T12:27:55.812Z,99996.97
2022-12-04T12:29:13.637Z,100001.25
2022-12-04T12:30:21.191Z,99997.78
2022-12-04T12:31:41.265Z,99999.00
2022-12-04T12:33:01.120Z,99996.00
2022-12-04T12:34:15.968Z,99984.47
2022-12-04T12:35:38.642Z,99994.28
2022-12-04T12:36:45.673Z,100002.22
2022-12-04T12:37:54.102Z,99991.72
2022-12-04T12:39:01.518Z,99996.97
2022-12-04T12:40:11.697Z,100005.50
2022-12-04T12:41:18.923Z,100002.75
2022-12-04T12:42:36.268Z,99998.03
2022-12-04T12:43:39.402Z,99998.56
2022-12-04T12:45:23.117Z,99999.81
2022-12-04T12:46:36.226Z,99995.41
2022-12-04T12:47:45.983Z,99984.38
2022-12-04T12:49:00.495Z,100001.78
2022-12-04T12:50:27.890Z,99997.66
2022-12-04T12:51:41.808Z,100001.63